sensor_id;sensor_type;location;lat;lon;timestamp;temperature;humidity
5196;DHT22;2617;51.006;12.436;2023-04-09T00:03:28;2.10;99.90
5196;DHT22;2617;51.006;12.436;2023-04-09T00:08:31;2.00;99.90
5196;DHT22;2617;51.006;12.436;2023-04-09T00:13:33;1.90;99.90
5196;DHT22;2617;51.006;12.436;2023-04-09T00:18:36;1.80;99.90
5196;DHT22;2617;51.006;12.436;2023-04-09T00:23:38;1.70;99.90
5196;DHT22;2617;51.006;12.436;2023-04-09T00:28:41;1.50;99.90
5196;DHT22;2617;51.006;12.436;2023-04-09T00:33:44;1.50;99.90
5196;DHT22;2617;51.006;12.436;2023-04-09T00:38:48;1.30;99.90
5196;DHT22;2617;51.006;12.436;2023-04-09T00:43:49;1.20;99.90
5196;DHT22;2617;51.006;12.436;2023-04-09T00:48:52;1.10;99.90
5196;DHT22;2617;51.006;12.436;2023-04-09T00:53:55;1.00;99.90
5196;DHT22;2617;51.006;12.436;2023-04-09T00:58:58;1.00;99.90
5196;DHT22;2617;51.006;12.436;2023-04-09T01:04:01;0.90;99.90
5196;DHT22;2617;51.006;12.436;2023-04-09T01:09:09;0.90;99.90
5196;DHT22;2617;51.006;12.436;2023-04-09T01:14:19;0.80;99.90
5196;DHT22;2617;51.006;12.436;2023-04-09T01:24:51;0.70;99.90
5196;DHT22;2617;51.006;12.436;2023-04-09T01:29:48;0.60;99.90
5196;DHT22;2617;51.006;12.436;2023-04-09T01:34:50;0.50;99.90
5196;DHT22;2617;51.006;12.436;2023-04-09T01:39:53;0.50;99.90
5196;DHT22;2617;51.006;12.436;2023-04-09T01:44:55;0.40;99.90
5196;DHT22;2617;51.006;12.436;2023-04-09T01:49:58;0.20;99.90
5196;DHT22;2617;51.006;12.436;2023-04-09T01:55:02;0.30;99.90
5196;DHT22;2617;51.006;12.436;2023-04-09T02:00:06;0.20;99.90
5196;DHT22;2617;51.006;12.436;2023-04-09T02:05:09;0.20;99.90
5196;DHT22;2617;51.006;12.436;2023-04-09T02:10:12;0.00;99.90
5196;DHT22;2617;51.006;12.436;2023-04-09T02:15:14;0.00;99.90
5196;DHT22;2617;51.006;12.436;2023-04-09T02:20:17;0.00;99.90
5196;DHT22;2617;51.006;12.436;2023-04-09T02:25:19;-0.10;99.90
5196;DHT22;2617;51.006;12.436;2023-04-09T02:30:22;-0.20;99.90
5196;DHT22;2617;51.006;12.436;2023-04-09T02:35:25;-0.20;99.90
5196;DHT22;2617;51.006;12.436;2023-04-09T02:40:28;-0.20;99.90
5196;DHT22;2617;51.006;12.436;2023-04-09T02:45:30;-0.20;99.90
5196;DHT22;2617;51.006;12.436;2023-04-09T02:50:33;-0.20;99.90
5196;DHT22;2617;51.006;12.436;2023-04-09T02:55:35;-0.30;99.90
5196;DHT22;2617;51.006;12.436;2023-04-09T03:00:38;-0.30;99.90
5196;DHT22;2617;51.006;12.436;2023-04-09T03:05:41;-0.30;99.90
5196;DHT22;2617;51.006;12.436;2023-04-09T03:10:44;-0.30;99.90
5196;DHT22;2617;51.006;12.436;2023-04-09T03:15:50;-0.30;99.90
5196;DHT22;2617;51.006;12.436;2023-04-09T03:20:49;-0.30;99.90
5196;DHT22;2617;51.006;12.436;2023-04-09T03:26:00;-0.20;99.90
5196;DHT22;2617;51.006;12.436;2023-04-09T03:31:02;-0.10;99.90
5196;DHT22;2617;51.006;12.436;2023-04-09T03:36:04;-0.10;99.90
5196;DHT22;2617;51.006;12.436;2023-04-09T03:41:07;-0.10;99.90
5196;DHT22;2617;51.006;12.436;2023-04-09T03:46:12;0.00;99.90
5196;DHT22;2617;51.006;12.436;2023-04-09T03:51:16;0.00;99.90
5196;DHT22;2617;51.006;12.436;2023-04-09T03:56:18;-0.10;99.90
5196;DHT22;2617;51.006;12.436;2023-04-09T04:01:22;-0.10;99.90
5196;DHT22;2617;51.006;12.436;2023-04-09T04:06:24;-0.10;99.90
5196;DHT22;2617;51.006;12.436;2023-04-09T04:11:27;-0.10;99.90
5196;DHT22;2617;51.006;12.436;2023-04-09T04:16:29;-0.20;99.90
5196;DHT22;2617;51.006;12.436;2023-04-09T04:21:31;-0.20;99.90
5196;DHT22;2617;51.006;12.436;2023-04-09T04:26:34;-0.20;99.90
5196;DHT22;2617;51.006;12.436;2023-04-09T04:31:36;-0.20;99.90
5196;DHT22;2617;51.006;12.436;2023-04-09T04:36:39;-0.20;99.90
5196;DHT22;2617;51.006;12.436;2023-04-09T04:41:41;-0.10;99.90
5196;DHT22;2617;51.006;12.436;2023-04-09T04:46:43;-0.10;99.90
5196;DHT22;2617;51.006;12.436;2023-04-09T04:51:46;-0.10;99.90
5196;DHT22;2617;51.006;12.436;2023-04-09T04:56:48;0.00;99.90
5196;DHT22;2617;51.006;12.436;2023-04-09T05:01:51;0.10;99.90
5196;DHT22;2617;51.006;12.436;2023-04-09T05:06:54;0.10;99.90
5196;DHT22;2617;51.006;12.436;2023-04-09T05:11:56;0.20;99.90
5196;DHT22;2617;51.006;12.436;2023-04-09T05:16:59;0.30;99.90
5196;DHT22;2617;51.006;12.436;2023-04-09T05:22:01;0.30;99.90
5196;DHT22;2617;51.006;12.436;2023-04-09T05:27:05;0.40;99.90
5196;DHT22;2617;51.006;12.436;2023-04-09T05:32:08;0.30;99.90
5196;DHT22;2617;51.006;12.436;2023-04-09T05:37:10;0.50;99.90
5196;DHT22;2617;51.006;12.436;2023-04-09T05:42:13;0.60;99.90
5196;DHT22;2617;51.006;12.436;2023-04-09T05:47:15;0.80;99.90
5196;DHT22;2617;51.006;12.436;2023-04-09T05:52:18;1.00;99.90
5196;DHT22;2617;51.006;12.436;2023-04-09T05:57:20;1.10;99.90
5196;DHT22;2617;51.006;12.436;2023-04-09T06:02:23;1.30;99.90
5196;DHT22;2617;51.006;12.436;2023-04-09T06:07:25;1.50;99.90
5196;DHT22;2617;51.006;12.436;2023-04-09T06:12:27;1.50;99.90
5196;DHT22;2617;51.006;12.436;2023-04-09T06:17:30;1.70;99.90
5196;DHT22;2617;51.006;12.436;2023-04-09T06:22:32;1.70;99.90
5196;DHT22;2617;51.006;12.436;2023-04-09T06:27:36;1.70;99.90
5196;DHT22;2617;51.006;12.436;2023-04-09T06:32:39;1.70;99.90
5196;DHT22;2617;51.006;12.436;2023-04-09T06:37:41;1.70;99.90
5196;DHT22;2617;51.006;12.436;2023-04-09T06:42:44;1.90;99.90
5196;DHT22;2617;51.006;12.436;2023-04-09T06:47:47;1.80;99.90
5196;DHT22;2617;51.006;12.436;2023-04-09T06:52:50;2.00;99.90
5196;DHT22;2617;51.006;12.436;2023-04-09T06:57:52;2.00;99.90
5196;DHT22;2617;51.006;12.436;2023-04-09T07:02:56;2.30;99.90
5196;DHT22;2617;51.006;12.436;2023-04-09T07:07:58;2.30;99.90
5196;DHT22;2617;51.006;12.436;2023-04-09T07:13:00;2.50;99.90
5196;DHT22;2617;51.006;12.436;2023-04-09T07:18:04;2.80;99.90
5196;DHT22;2617;51.006;12.436;2023-04-09T07:23:06;2.80;99.90
5196;DHT22;2617;51.006;12.436;2023-04-09T07:28:10;3.30;99.90
5196;DHT22;2617;51.006;12.436;2023-04-09T07:33:12;3.20;99.90
5196;DHT22;2617;51.006;12.436;2023-04-09T07:38:14;3.80;99.90
5196;DHT22;2617;51.006;12.436;2023-04-09T07:43:17;4.20;99.90
5196;DHT22;2617;51.006;12.436;2023-04-09T07:48:19;4.30;99.90
5196;DHT22;2617;51.006;12.436;2023-04-09T07:53:22;4.60;99.90
5196;DHT22;2617;51.006;12.436;2023-04-09T07:58:24;4.70;99.90
5196;DHT22;2617;51.006;12.436;2023-04-09T08:03:27;4.80;99.90
5196;DHT22;2617;51.006;12.436;2023-04-09T08:08:29;5.00;99.90
5196;DHT22;2617;51.006;12.436;2023-04-09T08:13:31;5.10;99.90
5196;DHT22;2617;51.006;12.436;2023-04-09T08:18:34;5.30;99.90
5196;DHT22;2617;51.006;12.436;2023-04-09T08:23:37;5.60;99.90
5196;DHT22;2617;51.006;12.436;2023-04-09T08:28:40;6.00;99.90
5196;DHT22;2617;51.006;12.436;2023-04-09T08:33:42;6.30;99.90
5196;DHT22;2617;51.006;12.436;2023-04-09T08:38:44;6.30;99.90
5196;DHT22;2617;51.006;12.436;2023-04-09T08:43:47;6.30;99.90
5196;DHT22;2617;51.006;12.436;2023-04-09T08:48:50;6.60;99.90
5196;DHT22;2617;51.006;12.436;2023-04-09T08:53:55;6.50;99.90
5196;DHT22;2617;51.006;12.436;2023-04-09T08:58:57;6.50;99.90
5196;DHT22;2617;51.006;12.436;2023-04-09T09:04:01;6.60;99.90
5196;DHT22;2617;51.006;12.436;2023-04-09T09:09:14;7.00;99.90
5196;DHT22;2617;51.006;12.436;2023-04-09T09:14:17;7.40;99.90
5196;DHT22;2617;51.006;12.436;2023-04-09T09:19:31;7.70;99.90
5196;DHT22;2617;51.006;12.436;2023-04-09T09:24:32;7.70;99.90
5196;DHT22;2617;51.006;12.436;2023-04-09T09:29:34;8.10;99.90
5196;DHT22;2617;51.006;12.436;2023-04-09T09:34:38;8.20;99.90
5196;DHT22;2617;51.006;12.436;2023-04-09T09:39:42;8.40;99.90
5196;DHT22;2617;51.006;12.436;2023-04-09T09:44:45;8.60;99.90
5196;DHT22;2617;51.006;12.436;2023-04-09T09:49:48;8.80;99.90
5196;DHT22;2617;51.006;12.436;2023-04-09T09:54:51;9.10;99.90
5196;DHT22;2617;51.006;12.436;2023-04-09T09:59:58;9.40;99.90
5196;DHT22;2617;51.006;12.436;2023-04-09T10:04:59;9.60;99.90
5196;DHT22;2617;51.006;12.436;2023-04-09T10:10:01;10.00;99.90
5196;DHT22;2617;51.006;12.436;2023-04-09T10:15:04;10.20;99.90
5196;DHT22;2617;51.006;12.436;2023-04-09T10:20:10;10.30;99.90
5196;DHT22;2617;51.006;12.436;2023-04-09T10:25:14;10.40;99.90
5196;DHT22;2617;51.006;12.436;2023-04-09T10:35:32;10.60;99.90
5196;DHT22;2617;51.006;12.436;2023-04-09T10:40:45;10.90;99.90
5196;DHT22;2617;51.006;12.436;2023-04-09T10:45:48;10.90;99.90
5196;DHT22;2617;51.006;12.436;2023-04-09T10:50:51;11.20;99.90
5196;DHT22;2617;51.006;12.436;2023-04-09T10:55:54;10.80;99.90
5196;DHT22;2617;51.006;12.436;2023-04-09T11:00:58;11.30;99.90
5196;DHT22;2617;51.006;12.436;2023-04-09T11:06:03;11.30;99.90
5196;DHT22;2617;51.006;12.436;2023-04-09T11:11:05;11.20;99.90
5196;DHT22;2617;51.006;12.436;2023-04-09T11:16:07;11.10;99.90
5196;DHT22;2617;51.006;12.436;2023-04-09T11:21:10;11.30;99.80
5196;DHT22;2617;51.006;12.436;2023-04-09T11:26:12;11.20;99.20
5196;DHT22;2617;51.006;12.436;2023-04-09T11:31:15;11.50;98.30
5196;DHT22;2617;51.006;12.436;2023-04-09T11:36:17;11.90;98.00
5196;DHT22;2617;51.006;12.436;2023-04-09T11:46:34;12.20;97.20
5196;DHT22;2617;51.006;12.436;2023-04-09T11:51:36;12.40;96.70
5196;DHT22;2617;51.006;12.436;2023-04-09T11:56:39;12.40;97.00
5196;DHT22;2617;51.006;12.436;2023-04-09T12:01:47;12.80;97.00
5196;DHT22;2617;51.006;12.436;2023-04-09T12:06:45;12.70;96.90
5196;DHT22;2617;51.006;12.436;2023-04-09T12:11:47;12.90;95.50
5196;DHT22;2617;51.006;12.436;2023-04-09T12:16:50;12.90;96.60
5196;DHT22;2617;51.006;12.436;2023-04-09T12:21:53;13.10;95.40
5196;DHT22;2617;51.006;12.436;2023-04-09T12:26:55;12.80;95.10
5196;DHT22;2617;51.006;12.436;2023-04-09T12:31:57;12.80;95.80
5196;DHT22;2617;51.006;12.436;2023-04-09T12:37:00;12.70;94.70
5196;DHT22;2617;51.006;12.436;2023-04-09T12:42:03;13.20;93.50
5196;DHT22;2617;51.006;12.436;2023-04-09T12:47:05;13.20;93.50
5196;DHT22;2617;51.006;12.436;2023-04-09T12:52:09;13.10;93.70
5196;DHT22;2617;51.006;12.436;2023-04-09T12:57:11;13.10;93.70
5196;DHT22;2617;51.006;12.436;2023-04-09T13:02:14;13.40;92.50
5196;DHT22;2617;51.006;12.436;2023-04-09T13:07:18;13.20;92.00
5196;DHT22;2617;51.006;12.436;2023-04-09T13:12:20;13.20;92.00
5196;DHT22;2617;51.006;12.436;2023-04-09T13:17:23;13.40;92.20
5196;DHT22;2617;51.006;12.436;2023-04-09T13:22:25;13.50;92.30
5196;DHT22;2617;51.006;12.436;2023-04-09T13:27:28;14.00;92.10
5196;DHT22;2617;51.006;12.436;2023-04-09T13:32:31;14.00;92.00
5196;DHT22;2617;51.006;12.436;2023-04-09T13:37:34;13.70;92.00
5196;DHT22;2617;51.006;12.436;2023-04-09T13:42:36;13.70;91.70
5196;DHT22;2617;51.006;12.436;2023-04-09T13:47:40;13.90;91.40
5196;DHT22;2617;51.006;12.436;2023-04-09T13:52:42;13.90;91.40
5196;DHT22;2617;51.006;12.436;2023-04-09T13:57:46;13.50;93.20
5196;DHT22;2617;51.006;12.436;2023-04-09T14:02:48;13.50;93.20
5196;DHT22;2617;51.006;12.436;2023-04-09T14:07:51;13.40;92.60
5196;DHT22;2617;51.006;12.436;2023-04-09T14:12:54;13.40;92.60
5196;DHT22;2617;51.006;12.436;2023-04-09T14:17:56;13.40;91.10
5196;DHT22;2617;51.006;12.436;2023-04-09T14:22:58;13.30;91.30
5196;DHT22;2617;51.006;12.436;2023-04-09T14:28:01;13.30;91.10
5196;DHT22;2617;51.006;12.436;2023-04-09T14:33:03;13.50;90.70
5196;DHT22;2617;51.006;12.436;2023-04-09T14:38:06;13.50;91.70
5196;DHT22;2617;51.006;12.436;2023-04-09T14:43:10;13.60;91.70
5196;DHT22;2617;51.006;12.436;2023-04-09T14:48:12;13.50;91.70
5196;DHT22;2617;51.006;12.436;2023-04-09T14:53:15;13.60;90.10
5196;DHT22;2617;51.006;12.436;2023-04-09T14:58:17;13.70;86.60
5196;DHT22;2617;51.006;12.436;2023-04-09T15:03:20;13.90;87.40
5196;DHT22;2617;51.006;12.436;2023-04-09T15:08:22;14.10;87.90
5196;DHT22;2617;51.006;12.436;2023-04-09T15:13:25;14.10;90.30
5196;DHT22;2617;51.006;12.436;2023-04-09T15:18:28;14.10;90.30
5196;DHT22;2617;51.006;12.436;2023-04-09T15:23:30;14.10;89.30
5196;DHT22;2617;51.006;12.436;2023-04-09T15:28:33;13.90;87.50
5196;DHT22;2617;51.006;12.436;2023-04-09T15:33:36;13.70;84.90
5196;DHT22;2617;51.006;12.436;2023-04-09T15:38:38;13.60;84.80
5196;DHT22;2617;51.006;12.436;2023-04-09T15:43:42;13.70;87.30
5196;DHT22;2617;51.006;12.436;2023-04-09T15:48:44;13.40;86.10
5196;DHT22;2617;51.006;12.436;2023-04-09T15:53:47;13.30;90.40
5196;DHT22;2617;51.006;12.436;2023-04-09T15:58:49;13.10;90.70
5196;DHT22;2617;51.006;12.436;2023-04-09T16:03:52;13.00;90.80
5196;DHT22;2617;51.006;12.436;2023-04-09T16:08:54;13.00;90.60
5196;DHT22;2617;51.006;12.436;2023-04-09T16:13:58;12.90;90.10
5196;DHT22;2617;51.006;12.436;2023-04-09T16:19:00;12.80;90.10
5196;DHT22;2617;51.006;12.436;2023-04-09T16:24:03;12.80;90.80
5196;DHT22;2617;51.006;12.436;2023-04-09T16:29:06;12.70;90.50
5196;DHT22;2617;51.006;12.436;2023-04-09T16:34:09;12.60;91.10
5196;DHT22;2617;51.006;12.436;2023-04-09T16:39:13;12.60;91.10
5196;DHT22;2617;51.006;12.436;2023-04-09T16:44:16;12.50;91.50
5196;DHT22;2617;51.006;12.436;2023-04-09T16:49:18;12.50;91.50
5196;DHT22;2617;51.006;12.436;2023-04-09T16:54:21;12.50;91.70
5196;DHT22;2617;51.006;12.436;2023-04-09T16:59:23;12.40;91.40
5196;DHT22;2617;51.006;12.436;2023-04-09T17:04:25;12.30;91.70
5196;DHT22;2617;51.006;12.436;2023-04-09T17:09:28;12.10;91.90
5196;DHT22;2617;51.006;12.436;2023-04-09T17:14:30;12.00;92.00
5196;DHT22;2617;51.006;12.436;2023-04-09T17:19:33;11.80;92.90
5196;DHT22;2617;51.006;12.436;2023-04-09T17:24:36;11.70;92.80
5196;DHT22;2617;51.006;12.436;2023-04-09T17:29:38;11.60;93.60
5196;DHT22;2617;51.006;12.436;2023-04-09T17:34:45;11.30;95.20
5196;DHT22;2617;51.006;12.436;2023-04-09T17:39:44;11.30;95.20
5196;DHT22;2617;51.006;12.436;2023-04-09T17:44:47;11.20;96.40
5196;DHT22;2617;51.006;12.436;2023-04-09T17:49:49;11.00;96.80
5196;DHT22;2617;51.006;12.436;2023-04-09T17:54:52;10.70;99.30
5196;DHT22;2617;51.006;12.436;2023-04-09T17:59:55;10.70;99.30
5196;DHT22;2617;51.006;12.436;2023-04-09T18:04:58;10.50;99.90
5196;DHT22;2617;51.006;12.436;2023-04-09T18:10:01;10.30;99.90
5196;DHT22;2617;51.006;12.436;2023-04-09T18:15:03;10.10;99.90
5196;DHT22;2617;51.006;12.436;2023-04-09T18:20:07;9.90;99.90
5196;DHT22;2617;51.006;12.436;2023-04-09T18:25:09;9.70;99.90
5196;DHT22;2617;51.006;12.436;2023-04-09T18:30:12;9.40;99.90
5196;DHT22;2617;51.006;12.436;2023-04-09T18:35:14;9.30;99.90
5196;DHT22;2617;51.006;12.436;2023-04-09T18:40:17;9.10;99.90
5196;DHT22;2617;51.006;12.436;2023-04-09T18:45:20;9.00;99.90
5196;DHT22;2617;51.006;12.436;2023-04-09T18:50:22;8.90;99.90
5196;DHT22;2617;51.006;12.436;2023-04-09T18:55:25;8.80;99.90
5196;DHT22;2617;51.006;12.436;2023-04-09T19:00:27;8.80;99.90
5196;DHT22;2617;51.006;12.436;2023-04-09T19:05:30;8.70;99.90
5196;DHT22;2617;51.006;12.436;2023-04-09T19:10:32;8.60;99.90
5196;DHT22;2617;51.006;12.436;2023-04-09T19:15:34;8.40;99.90
5196;DHT22;2617;51.006;12.436;2023-04-09T19:20:37;8.30;99.90
5196;DHT22;2617;51.006;12.436;2023-04-09T19:25:39;8.20;99.90
5196;DHT22;2617;51.006;12.436;2023-04-09T19:30:42;7.90;99.90
5196;DHT22;2617;51.006;12.436;2023-04-09T19:35:45;7.70;99.90
5196;DHT22;2617;51.006;12.436;2023-04-09T19:40:47;7.50;99.90
5196;DHT22;2617;51.006;12.436;2023-04-09T19:45:49;7.40;99.90
5196;DHT22;2617;51.006;12.436;2023-04-09T19:50:52;7.30;99.90
5196;DHT22;2617;51.006;12.436;2023-04-09T19:55:54;7.10;99.90
5196;DHT22;2617;51.006;12.436;2023-04-09T20:00:57;6.90;99.90
5196;DHT22;2617;51.006;12.436;2023-04-09T20:06:04;6.90;99.90
5196;DHT22;2617;51.006;12.436;2023-04-09T20:11:14;6.90;99.90
5196;DHT22;2617;51.006;12.436;2023-04-09T20:16:13;6.80;99.90
5196;DHT22;2617;51.006;12.436;2023-04-09T20:21:16;6.70;99.90
5196;DHT22;2617;51.006;12.436;2023-04-09T20:26:18;6.70;99.90
5196;DHT22;2617;51.006;12.436;2023-04-09T20:31:21;6.60;99.90
5196;DHT22;2617;51.006;12.436;2023-04-09T20:36:23;6.60;99.90
5196;DHT22;2617;51.006;12.436;2023-04-09T20:41:25;6.50;99.90
5196;DHT22;2617;51.006;12.436;2023-04-09T20:46:29;6.40;99.90
5196;DHT22;2617;51.006;12.436;2023-04-09T20:51:31;6.30;99.90
5196;DHT22;2617;51.006;12.436;2023-04-09T20:56:34;6.30;99.90
5196;DHT22;2617;51.006;12.436;2023-04-09T21:01:36;6.20;99.90
5196;DHT22;2617;51.006;12.436;2023-04-09T21:06:38;6.10;99.90
5196;DHT22;2617;51.006;12.436;2023-04-09T21:11:41;6.00;99.90
5196;DHT22;2617;51.006;12.436;2023-04-09T21:16:43;5.90;99.90
5196;DHT22;2617;51.006;12.436;2023-04-09T21:21:46;5.80;99.90
5196;DHT22;2617;51.006;12.436;2023-04-09T21:26:49;5.40;99.90
5196;DHT22;2617;51.006;12.436;2023-04-09T21:31:51;5.40;99.90
5196;DHT22;2617;51.006;12.436;2023-04-09T21:36:54;5.30;99.90
5196;DHT22;2617;51.006;12.436;2023-04-09T21:41:56;5.20;99.90
5196;DHT22;2617;51.006;12.436;2023-04-09T21:46:59;5.00;99.90
5196;DHT22;2617;51.006;12.436;2023-04-09T21:52:02;4.80;99.90
5196;DHT22;2617;51.006;12.436;2023-04-09T21:57:05;4.80;99.90
5196;DHT22;2617;51.006;12.436;2023-04-09T22:02:07;4.70;99.90
5196;DHT22;2617;51.006;12.436;2023-04-09T22:07:10;4.60;99.90
5196;DHT22;2617;51.006;12.436;2023-04-09T22:12:13;4.50;99.90
5196;DHT22;2617;51.006;12.436;2023-04-09T22:17:15;4.40;99.90
5196;DHT22;2617;51.006;12.436;2023-04-09T22:22:18;4.30;99.90
5196;DHT22;2617;51.006;12.436;2023-04-09T22:27:21;4.20;99.90
5196;DHT22;2617;51.006;12.436;2023-04-09T22:32:23;4.10;99.90
5196;DHT22;2617;51.006;12.436;2023-04-09T22:37:26;4.10;99.90
5196;DHT22;2617;51.006;12.436;2023-04-09T22:42:28;4.00;99.90
5196;DHT22;2617;51.006;12.436;2023-04-09T22:47:30;4.00;99.90
5196;DHT22;2617;51.006;12.436;2023-04-09T22:52:33;4.00;99.90
5196;DHT22;2617;51.006;12.436;2023-04-09T22:57:36;4.00;99.90
5196;DHT22;2617;51.006;12.436;2023-04-09T23:02:38;3.90;99.90
5196;DHT22;2617;51.006;12.436;2023-04-09T23:07:41;4.00;99.90
5196;DHT22;2617;51.006;12.436;2023-04-09T23:12:43;4.00;99.90
5196;DHT22;2617;51.006;12.436;2023-04-09T23:17:46;3.90;99.90
5196;DHT22;2617;51.006;12.436;2023-04-09T23:22:49;3.80;99.90
5196;DHT22;2617;51.006;12.436;2023-04-09T23:27:52;3.80;99.90
5196;DHT22;2617;51.006;12.436;2023-04-09T23:32:54;3.60;99.90
5196;DHT22;2617;51.006;12.436;2023-04-09T23:37:56;3.50;99.90
5196;DHT22;2617;51.006;12.436;2023-04-09T23:42:59;3.40;99.90
5196;DHT22;2617;51.006;12.436;2023-04-09T23:48:04;3.30;99.90
5196;DHT22;2617;51.006;12.436;2023-04-09T23:53:05;3.30;99.90
5196;DHT22;2617;51.006;12.436;2023-04-09T23:58:07;3.20;99.90
